createdAt,value
2023-02-14T00:00:07.914Z,2.63
2023-02-14T00:00:28.564Z,2.61
2023-02-14T00:00:35.603Z,2.61
2023-02-14T00:00:42.669Z,2.62
2023-02-14T00:00:49.759Z,2.61
2023-02-14T00:01:09.209Z,2.65
2023-02-14T00:01:16.309Z,2.63
2023-02-14T00:01:23.458Z,2.62
2023-02-14T00:01:30.520Z,2.65
2023-02-14T00:01:37.632Z,2.63
2023-02-14T00:01:58.509Z,2.63
2023-02-14T00:02:05.800Z,2.63
2023-02-14T00:02:12.829Z,2.61
2023-02-14T00:02:19.897Z,2.60
2023-02-14T00:02:28.393Z,2.62
2023-02-14T00:02:42.504Z,2.63
2023-02-14T00:02:49.688Z,2.64
2023-02-14T00:02:57.502Z,2.61
2023-02-14T00:03:13.421Z,2.62
2023-02-14T00:03:20.525Z,2.64
2023-02-14T00:03:29.798Z,2.63
2023-02-14T00:03:38.161Z,2.65
2023-02-14T00:04:00.797Z,2.67
2023-02-14T00:04:08.087Z,2.70
2023-02-14T00:04:16.547Z,2.69
2023-02-14T00:04:23.774Z,2.68
2023-02-14T00:04:31.104Z,2.70
2023-02-14T00:04:42.388Z,2.65
2023-02-14T00:04:50.578Z,2.68
2023-02-14T00:05:00.828Z,2.69
2023-02-14T00:05:08.168Z,2.67
2023-02-14T00:05:27.626Z,2.66
2023-02-14T00:05:34.794Z,2.69
2023-02-14T00:05:41.901Z,2.68
2023-02-14T00:05:49.564Z,2.69
2023-02-14T00:06:06.952Z,2.69
2023-02-14T00:06:15.505Z,2.70
2023-02-14T00:06:22.629Z,2.69
2023-02-14T00:06:32.806Z,2.69
2023-02-14T00:06:39.923Z,2.68
2023-02-14T00:06:59.277Z,2.72
2023-02-14T00:07:06.624Z,2.70
2023-02-14T00:07:13.836Z,2.69
2023-02-14T00:07:21.912Z,2.69
2023-02-14T00:07:28.944Z,2.67
2023-02-14T00:07:47.968Z,2.66
2023-02-14T00:07:54.986Z,2.66
2023-02-14T00:08:01.987Z,2.68
2023-02-14T00:08:09.010Z,2.67
2023-02-14T00:08:24.151Z,2.66
2023-02-14T00:08:31.919Z,2.64
2023-02-14T00:08:41.097Z,2.63
2023-02-14T00:08:48.199Z,2.62
2023-02-14T00:09:07.803Z,2.65
2023-02-14T00:09:16.012Z,2.61
2023-02-14T00:09:23.469Z,2.62
2023-02-14T00:09:30.590Z,2.64
2023-02-14T00:09:38.905Z,2.64
2023-02-14T00:09:57.938Z,2.62
2023-02-14T00:10:05.554Z,2.64
2023-02-14T00:10:12.567Z,2.62
2023-02-14T00:10:19.828Z,2.62
2023-02-14T00:10:38.871Z,2.63
2023-02-14T00:10:46.300Z,2.67
2023-02-14T00:10:54.608Z,2.68
2023-02-14T00:11:01.725Z,2.65
2023-02-14T00:11:09.080Z,2.61
2023-02-14T00:11:28.393Z,2.58
2023-02-14T00:11:35.412Z,2.61
2023-02-14T00:11:42.946Z,2.63
2023-02-14T00:11:51.684Z,2.63
2023-02-14T00:11:58.793Z,2.62
2023-02-14T00:12:07.576Z,2.62
2023-02-14T00:12:26.625Z,2.63
2023-02-14T00:12:33.672Z,2.65
2023-02-14T00:12:40.736Z,2.65
2023-02-14T00:12:47.757Z,2.62
2023-02-14T00:13:07.773Z,2.59
2023-02-14T00:13:14.821Z,2.59
2023-02-14T00:13:21.869Z,2.58
2023-02-14T00:13:28.932Z,2.57
2023-02-14T00:14:03.125Z,2.59
2023-02-14T00:14:29.083Z,2.60
2023-02-14T00:14:54.657Z,2.60
2023-02-14T00:15:19.784Z,2.59
2023-02-14T00:15:27.052Z,2.60
2023-02-14T00:15:34.293Z,2.61
2023-02-14T00:15:41.443Z,2.61
2023-02-14T00:15:48.755Z,2.59
2023-02-14T00:15:56.107Z,2.60
2023-02-14T00:16:04.680Z,2.60
2023-02-14T00:16:11.848Z,2.57
2023-02-14T00:16:18.964Z,2.57
2023-02-14T00:16:26.168Z,2.58
2023-02-14T00:16:33.362Z,2.57
2023-02-14T00:16:41.418Z,2.58
2023-02-14T00:16:50.055Z,2.59
2023-02-14T00:16:57.297Z,2.59
2023-02-14T00:17:04.542Z,2.59
2023-02-14T00:17:12.065Z,2.59
2023-02-14T00:17:19.191Z,2.60
2023-02-14T00:17:26.316Z,2.60
2023-02-14T00:17:34.763Z,2.62
2023-02-14T00:17:42.276Z,2.61
2023-02-14T00:18:03.594Z,2.61
2023-02-14T00:18:10.968Z,2.61
2023-02-14T00:18:19.726Z,2.63
2023-02-14T00:18:47.825Z,2.66
2023-02-14T00:19:03.791Z,2.58
2023-02-14T00:19:12.080Z,2.62
2023-02-14T00:19:20.587Z,2.62
2023-02-14T00:19:28.088Z,2.62
2023-02-14T00:19:36.089Z,2.60
2023-02-14T00:19:44.188Z,2.63
2023-02-14T00:19:51.240Z,2.61
2023-02-14T00:19:58.280Z,2.62
2023-02-14T00:20:06.036Z,2.62
2023-02-14T00:20:13.139Z,2.63
2023-02-14T00:20:20.421Z,2.65
2023-02-14T00:20:28.318Z,2.66
2023-02-14T00:20:37.065Z,2.63
2023-02-14T00:20:44.105Z,2.63
2023-02-14T00:20:51.133Z,2.62
2023-02-14T00:21:00.169Z,2.63
2023-02-14T00:21:20.392Z,2.62
2023-02-14T00:21:27.666Z,2.63
2023-02-14T00:21:36.186Z,2.63
2023-02-14T00:21:43.464Z,2.61
2023-02-14T00:21:50.541Z,2.60
2023-02-14T00:22:09.676Z,2.60
2023-02-14T00:22:16.752Z,2.60
2023-02-14T00:22:23.845Z,2.56
2023-02-14T00:22:30.934Z,2.58
2023-02-14T00:22:51.230Z,2.59
2023-02-14T00:22:58.257Z,2.56
2023-02-14T00:23:05.344Z,2.57
2023-02-14T00:23:12.430Z,2.57
2023-02-14T00:23:31.418Z,2.57
2023-02-14T00:23:38.515Z,2.58
2023-02-14T00:23:45.662Z,2.58
2023-02-14T00:23:52.723Z,2.56
2023-02-14T00:23:59.854Z,2.58
2023-02-14T00:24:21.728Z,2.58
2023-02-14T00:24:28.898Z,2.57
2023-02-14T00:24:37.133Z,2.58
2023-02-14T00:24:44.226Z,2.59
2023-02-14T00:24:51.352Z,2.60
2023-02-14T00:25:10.653Z,2.59
2023-02-14T00:25:18.319Z,2.58
2023-02-14T00:25:25.440Z,2.58
2023-02-14T00:25:33.973Z,2.60
2023-02-14T00:25:42.071Z,2.60
2023-02-14T00:26:01.055Z,2.58
2023-02-14T00:26:13.289Z,2.57
2023-02-14T00:26:20.932Z,2.58
2023-02-14T00:26:27.938Z,2.57
2023-02-14T00:26:35.079Z,2.58
2023-02-14T00:26:42.575Z,2.57
2023-02-14T00:26:50.224Z,2.59
2023-02-14T00:27:04.326Z,2.54
2023-02-14T00:27:11.387Z,2.56
2023-02-14T00:27:31.437Z,2.56
2023-02-14T00:27:41.819Z,2.55
2023-02-14T00:27:48.845Z,2.55
2023-02-14T00:27:55.869Z,2.55
2023-02-14T00:28:03.702Z,2.53
2023-02-14T00:28:10.758Z,2.54
2023-02-14T00:28:30.353Z,2.54
2023-02-14T00:28:37.630Z,2.54
2023-02-14T00:28:44.961Z,2.56
2023-02-14T00:28:52.985Z,2.55
2023-02-14T00:29:00.562Z,2.56
2023-02-14T00:29:21.930Z,2.54
2023-02-14T00:29:31.449Z,2.55
2023-02-14T00:29:38.506Z,2.56
2023-02-14T00:29:45.569Z,2.53
2023-02-14T00:29:54.878Z,2.54
2023-02-14T00:30:03.274Z,2.53
2023-02-14T00:30:12.822Z,2.50
2023-02-14T00:30:20.107Z,2.52
2023-02-14T00:30:39.360Z,2.50
2023-02-14T00:30:47.337Z,2.49
2023-02-14T00:30:56.978Z,2.50
2023-02-14T00:31:04.497Z,2.52
2023-02-14T00:31:11.797Z,2.50
2023-02-14T00:31:27.033Z,2.53
2023-02-14T00:31:37.323Z,2.52
2023-02-14T00:31:44.896Z,2.51
2023-02-14T00:31:52.017Z,2.51
2023-02-14T00:32:11.320Z,2.52
2023-02-14T00:32:18.392Z,2.55
2023-02-14T00:32:25.838Z,2.54
2023-02-14T00:32:34.881Z,2.56
2023-02-14T00:32:44.354Z,2.55
2023-02-14T00:32:51.465Z,2.55
2023-02-14T00:33:10.534Z,2.54
2023-02-14T00:33:18.297Z,2.53
2023-02-14T00:33:25.793Z,2.54
2023-02-14T00:33:32.869Z,2.55
2023-02-14T00:33:40.263Z,2.52
2023-02-14T00:33:54.784Z,2.51
2023-02-14T00:34:02.221Z,2.51
2023-02-14T00:34:23.168Z,2.47
2023-02-14T00:34:30.259Z,2.50
2023-02-14T00:34:40.821Z,2.49
2023-02-14T00:34:50.687Z,2.52
2023-02-14T00:34:57.720Z,2.50
2023-02-14T00:35:04.984Z,2.49
2023-02-14T00:35:13.242Z,2.50
2023-02-14T00:35:21.258Z,2.53
2023-02-14T00:35:40.530Z,2.54
2023-02-14T00:35:47.574Z,2.56
2023-02-14T00:35:55.141Z,2.57
2023-02-14T00:36:02.975Z,2.55
2023-02-14T00:36:10.342Z,2.56
2023-02-14T00:36:26.112Z,2.56
2023-02-14T00:36:33.428Z,2.56
2023-02-14T00:36:40.538Z,2.55
2023-02-14T00:36:56.644Z,2.55
2023-02-14T00:37:05.519Z,2.56
2023-02-14T00:37:12.582Z,2.57
2023-02-14T00:37:26.692Z,2.57
2023-02-14T00:37:34.413Z,2.55
2023-02-14T00:37:41.519Z,2.56
2023-02-14T00:37:50.528Z,2.56
2023-02-14T00:38:11.628Z,2.53
2023-02-14T00:38:22.928Z,2.57
2023-02-14T00:38:30.675Z,2.58
2023-02-14T00:38:39.748Z,2.59
2023-02-14T00:38:48.376Z,2.57
2023-02-14T00:38:56.804Z,2.58
2023-02-14T00:39:04.653Z,2.55
2023-02-14T00:39:12.462Z,2.56
2023-02-14T00:39:27.315Z,2.56
2023-02-14T00:39:34.510Z,2.55
2023-02-14T00:39:42.590Z,2.57
2023-02-14T00:39:56.969Z,2.57
2023-02-14T00:40:05.851Z,2.56
2023-02-14T00:40:13.210Z,2.56
2023-02-14T00:40:20.276Z,2.57
2023-02-14T00:40:37.510Z,2.59
2023-02-14T00:40:44.594Z,2.60
2023-02-14T00:40:51.693Z,2.59
2023-02-14T00:41:19.277Z,2.60
2023-02-14T00:41:26.352Z,2.61
2023-02-14T00:41:33.779Z,2.62
2023-02-14T00:41:41.900Z,2.59
2023-02-14T00:41:49.604Z,2.60
2023-02-14T00:41:57.204Z,2.61
2023-02-14T00:42:04.421Z,2.61
2023-02-14T00:42:11.607Z,2.62
2023-02-14T00:42:31.736Z,2.62
2023-02-14T00:42:38.833Z,2.62
2023-02-14T00:42:45.977Z,2.61
2023-02-14T00:42:54.810Z,2.65
2023-02-14T00:43:03.103Z,2.65
2023-02-14T00:43:10.147Z,2.62
2023-02-14T00:43:29.404Z,2.61
2023-02-14T00:43:37.531Z,2.61
2023-02-14T00:43:44.616Z,2.61
2023-02-14T00:43:52.806Z,2.61
2023-02-14T00:44:01.309Z,2.58
2023-02-14T00:44:21.113Z,2.61
2023-02-14T00:44:28.166Z,2.59
2023-02-14T00:44:35.309Z,2.60
2023-02-14T00:44:42.401Z,2.60
2023-02-14T00:45:01.419Z,2.61
2023-02-14T00:45:09.944Z,2.62
2023-02-14T00:45:19.102Z,2.63
2023-02-14T00:45:26.237Z,2.62
2023-02-14T00:45:33.316Z,2.63
2023-02-14T00:45:40.430Z,2.63
2023-02-14T00:45:59.768Z,2.60
2023-02-14T00:46:06.929Z,2.61
2023-02-14T00:46:14.577Z,2.59
2023-02-14T00:46:22.912Z,2.57
2023-02-14T00:46:29.951Z,2.60
2023-02-14T00:46:50.074Z,2.61
2023-02-14T00:46:57.144Z,2.62
2023-02-14T00:47:04.251Z,2.62
2023-02-14T00:47:11.313Z,2.63
2023-02-14T00:47:32.294Z,2.66
2023-02-14T00:47:39.366Z,2.63
2023-02-14T00:47:47.816Z,2.63
2023-02-14T00:47:54.849Z,2.65
2023-02-14T00:48:01.899Z,2.65
2023-02-14T00:48:21.954Z,2.62
2023-02-14T00:48:28.992Z,2.65
2023-02-14T00:48:36.066Z,2.65
2023-02-14T00:48:43.366Z,2.65
2023-02-14T00:48:51.026Z,2.64
2023-02-14T00:49:10.323Z,2.65
2023-02-14T00:49:18.633Z,2.66
2023-02-14T00:49:25.685Z,2.63
2023-02-14T00:49:32.817Z,2.68
2023-02-14T00:49:39.962Z,2.71
2023-02-14T00:50:02.980Z,2.69
2023-02-14T00:50:10.629Z,2.68
2023-02-14T00:50:17.718Z,2.67
2023-02-14T00:50:24.752Z,2.67
2023-02-14T00:50:32.007Z,2.66
2023-02-14T00:50:52.712Z,2.66
2023-02-14T00:51:00.091Z,2.67
2023-02-14T00:51:07.744Z,2.67
2023-02-14T00:51:15.118Z,2.66
2023-02-14T00:51:22.480Z,2.67
2023-02-14T00:51:31.846Z,2.66
2023-02-14T00:51:46.254Z,2.68
2023-02-14T00:51:53.406Z,2.66
2023-02-14T00:52:00.528Z,2.64
2023-02-14T00:52:19.576Z,2.60
2023-02-14T00:52:26.652Z,2.63
2023-02-14T00:52:34.788Z,2.60
2023-02-14T00:52:41.884Z,2.62
2023-02-14T00:52:57.332Z,2.63
2023-02-14T00:53:04.502Z,2.63
2023-02-14T00:53:11.553Z,2.62
2023-02-14T00:53:30.560Z,2.63
2023-02-14T00:53:37.865Z,2.64
2023-02-14T00:53:46.552Z,2.66
2023-02-14T00:53:54.138Z,2.63
2023-02-14T00:54:02.241Z,2.62
2023-02-14T00:54:11.323Z,2.62
2023-02-14T00:54:30.956Z,2.63
2023-02-14T00:54:39.706Z,2.63
2023-02-14T00:54:46.970Z,2.65
2023-02-14T00:54:54.649Z,2.65
2023-02-14T00:55:01.781Z,2.65
2023-02-14T00:55:09.855Z,2.64
2023-02-14T00:55:19.989Z,2.63
2023-02-14T00:55:39.437Z,2.62
2023-02-14T00:55:46.751Z,2.63
2023-02-14T00:55:55.142Z,2.63
2023-02-14T00:56:02.417Z,2.60
2023-02-14T00:56:14.239Z,2.61
2023-02-14T00:56:23.193Z,2.61
2023-02-14T00:56:30.333Z,2.61
2023-02-14T00:56:41.752Z,2.61
2023-02-14T00:57:01.529Z,2.61
2023-02-14T00:57:12.459Z,2.61
2023-02-14T00:57:19.542Z,2.60
2023-02-14T00:57:26.863Z,2.60
2023-02-14T00:57:33.966Z,2.61
2023-02-14T00:57:44.552Z,2.60
2023-02-14T00:57:51.643Z,2.60
2023-02-14T00:58:10.646Z,2.60
2023-02-14T00:58:19.070Z,2.62
2023-02-14T00:58:27.863Z,2.65
2023-02-14T00:58:36.183Z,2.65
2023-02-14T00:58:43.628Z,2.63
2023-02-14T00:58:50.704Z,2.64
2023-02-14T00:59:10.232Z,2.63
2023-02-14T00:59:17.350Z,2.66
2023-02-14T00:59:24.394Z,2.63
2023-02-14T00:59:31.436Z,2.60
2023-02-14T00:59:39.863Z,2.61
2023-02-14T00:59:58.874Z,2.63
2023-02-14T01:00:10.631Z,2.65
2023-02-14T01:00:17.881Z,2.65
2023-02-14T01:00:25.010Z,2.66
2023-02-14T01:00:34.749Z,2.64
2023-02-14T01:00:41.961Z,2.65
2023-02-14T01:01:01.419Z,2.66
2023-02-14T01:01:09.480Z,2.67
2023-02-14T01:01:17.883Z,2.66
2023-02-14T01:01:25.049Z,2.67
2023-02-14T01:01:32.164Z,2.66
2023-02-14T01:01:46.391Z,2.65
2023-02-14T01:01:53.428Z,2.64
2023-02-14T01:02:00.515Z,2.65
2023-02-14T01:02:21.405Z,2.62
2023-02-14T01:02:28.582Z,2.60
2023-02-14T01:02:38.871Z,2.61
2023-02-14T01:02:47.374Z,2.60
2023-02-14T01:02:54.613Z,2.62
2023-02-14T01:03:01.789Z,2.61
2023-02-14T01:03:10.359Z,2.60
2023-02-14T01:03:31.101Z,2.60
2023-02-14T01:03:43.583Z,2.62
2023-02-14T01:03:51.216Z,2.60
2023-02-14T01:04:00.167Z,2.60
2023-02-14T01:04:07.898Z,2.59
2023-02-14T01:04:14.983Z,2.60
2023-02-14T01:04:22.033Z,2.60
2023-02-14T01:04:41.078Z,2.59
2023-02-14T01:04:48.179Z,2.59
2023-02-14T01:04:55.241Z,2.58
2023-02-14T01:05:02.332Z,2.57
2023-02-14T01:05:21.325Z,2.58
2023-02-14T01:05:29.420Z,2.62
2023-02-14T01:05:37.218Z,2.61
2023-02-14T01:05:44.420Z,2.61
2023-02-14T01:05:51.457Z,2.62
2023-02-14T01:06:10.626Z,2.62
2023-02-14T01:06:17.661Z,2.62
2023-02-14T01:06:24.796Z,2.61
2023-02-14T01:06:37.898Z,2.63
2023-02-14T01:06:45.109Z,2.65
2023-02-14T01:06:53.550Z,2.63
2023-02-14T01:07:02.500Z,2.62
2023-02-14T01:07:22.834Z,2.61
2023-02-14T01:07:32.539Z,2.62
2023-02-14T01:07:39.549Z,2.60
2023-02-14T01:07:46.606Z,2.61
2023-02-14T01:07:53.678Z,2.59
2023-02-14T01:08:07.869Z,2.60
2023-02-14T01:08:15.206Z,2.61
2023-02-14T01:08:22.241Z,2.61
2023-02-14T01:08:31.422Z,2.61
2023-02-14T01:08:50.485Z,2.65
2023-02-14T01:09:00.777Z,2.66
2023-02-14T01:09:07.931Z,2.63
2023-02-14T01:09:16.113Z,2.63
2023-02-14T01:09:23.175Z,2.63
2023-02-14T01:09:30.321Z,2.65
2023-02-14T01:09:49.325Z,2.62
2023-02-14T01:09:57.764Z,2.62
2023-02-14T01:10:05.188Z,2.63
2023-02-14T01:10:12.275Z,2.62
2023-02-14T01:10:36.101Z,2.60
2023-02-14T01:10:44.620Z,2.60
2023-02-14T01:10:51.775Z,2.59
2023-02-14T01:11:06.742Z,2.58
2023-02-14T01:11:14.960Z,2.57
2023-02-14T01:11:28.169Z,2.56
2023-02-14T01:11:36.363Z,2.55
2023-02-14T01:11:43.485Z,2.54
2023-02-14T01:11:53.752Z,2.55
2023-02-14T01:12:00.827Z,2.56
2023-02-14T01:12:07.937Z,2.57
2023-02-14T01:12:14.979Z,2.53
2023-02-14T01:12:26.840Z,2.54
2023-02-14T01:12:33.884Z,2.53
2023-02-14T01:12:41.400Z,2.54
2023-02-14T01:12:55.473Z,2.56
2023-02-14T01:13:02.690Z,2.59
2023-02-14T01:13:10.061Z,2.56
2023-02-14T01:13:24.846Z,2.54
2023-02-14T01:13:31.916Z,2.54
2023-02-14T01:13:52.970Z,2.54
2023-02-14T01:14:00.155Z,2.55
2023-02-14T01:14:07.229Z,2.56
2023-02-14T01:14:14.317Z,2.54
2023-02-14T01:14:25.830Z,2.54
2023-02-14T01:14:32.845Z,2.56
2023-02-14T01:14:39.929Z,2.54
2023-02-14T01:14:59.766Z,2.54
2023-02-14T01:15:07.178Z,2.55
2023-02-14T01:15:15.311Z,2.54
2023-02-14T01:15:24.556Z,2.52
2023-02-14T01:15:32.300Z,2.54
2023-02-14T01:15:40.212Z,2.55
2023-02-14T01:16:05.214Z,2.50
2023-02-14T01:16:13.659Z,2.51
2023-02-14T01:16:21.546Z,2.50
2023-02-14T01:16:29.170Z,2.51
2023-02-14T01:16:37.864Z,2.52
2023-02-14T01:16:45.267Z,2.52
2023-02-14T01:16:52.405Z,2.57
2023-02-14T01:17:06.479Z,2.60
2023-02-14T01:17:13.560Z,2.62
2023-02-14T01:17:20.601Z,2.61
2023-02-14T01:17:47.121Z,2.61
2023-02-14T01:17:54.239Z,2.60
2023-02-14T01:18:01.606Z,2.58
2023-02-14T01:18:08.874Z,2.59
2023-02-14T01:18:17.577Z,2.59
2023-02-14T01:18:24.685Z,2.58
2023-02-14T01:18:31.730Z,2.57
2023-02-14T01:18:50.920Z,2.60
2023-02-14T01:18:59.338Z,2.59
2023-02-14T01:19:09.792Z,2.61
2023-02-14T01:19:16.954Z,2.58
2023-02-14T01:19:24.035Z,2.57
2023-02-14T01:19:31.097Z,2.56
2023-02-14T01:19:48.064Z,2.59
2023-02-14T01:19:55.244Z,2.58
2023-02-14T01:20:04.516Z,2.59
2023-02-14T01:20:11.821Z,2.59
2023-02-14T01:20:26.553Z,2.58
2023-02-14T01:20:33.797Z,2.57
2023-02-14T01:20:41.088Z,2.58
2023-02-14T01:20:55.062Z,2.58
2023-02-14T01:21:16.526Z,2.57
2023-02-14T01:21:25.722Z,2.58
2023-02-14T01:21:33.695Z,2.58
2023-02-14T01:21:41.729Z,2.58
2023-02-14T01:21:48.764Z,2.57
2023-02-14T01:21:55.915Z,2.58
2023-02-14T01:22:03.073Z,2.57
2023-02-14T01:22:10.223Z,2.59
2023-02-14T01:22:35.168Z,2.57
2023-02-14T01:22:42.775Z,2.57
2023-02-14T01:22:51.220Z,2.57
2023-02-14T01:23:00.576Z,2.58
2023-02-14T01:23:07.609Z,2.59
2023-02-14T01:23:14.757Z,2.56
2023-02-14T01:23:21.905Z,2.55
2023-02-14T01:23:36.128Z,2.54
2023-02-14T01:23:43.656Z,2.54
2023-02-14T01:23:52.152Z,2.54
2023-02-14T01:24:00.486Z,2.53
2023-02-14T01:24:25.254Z,2.54
2023-02-14T01:24:32.457Z,2.55
2023-02-14T01:24:40.756Z,2.55
2023-02-14T01:24:47.865Z,2.56
2023-02-14T01:24:55.006Z,2.54
2023-02-14T01:25:02.113Z,2.57
2023-02-14T01:25:09.988Z,2.56
2023-02-14T01:25:24.531Z,2.54
2023-02-14T01:25:32.136Z,2.54
2023-02-14T01:25:40.073Z,2.53
2023-02-14T01:25:55.828Z,2.55
2023-02-14T01:26:04.290Z,2.54
2023-02-14T01:26:11.787Z,2.52
2023-02-14T01:26:31.235Z,2.54
2023-02-14T01:26:41.285Z,2.56
2023-02-14T01:26:50.561Z,2.54
2023-02-14T01:26:57.650Z,2.53
2023-02-14T01:27:05.760Z,2.52
2023-02-14T01:27:12.840Z,2.52
2023-02-14T01:27:19.910Z,2.52
2023-02-14T01:27:39.070Z,2.50
2023-02-14T01:27:46.207Z,2.48
2023-02-14T01:27:53.918Z,2.43
2023-02-14T01:28:01.001Z,2.44
2023-02-14T01:28:20.470Z,2.47
2023-02-14T01:28:27.526Z,2.48
2023-02-14T01:28:35.220Z,2.49
2023-02-14T01:28:43.962Z,2.49
2023-02-14T01:28:51.041Z,2.48
2023-02-14T01:29:09.993Z,2.46
2023-02-14T01:29:17.075Z,2.46
2023-02-14T01:29:24.163Z,2.49
2023-02-14T01:29:32.663Z,2.52
2023-02-14T01:29:40.749Z,2.52
2023-02-14T01:29:59.818Z,2.49
2023-02-14T01:30:07.673Z,2.49
2023-02-14T01:30:15.208Z,2.50
2023-02-14T01:30:22.411Z,2.48
2023-02-14T01:30:41.526Z,2.48
2023-02-14T01:30:51.977Z,2.49
2023-02-14T01:31:05.424Z,2.50
2023-02-14T01:31:14.525Z,2.46
2023-02-14T01:31:24.426Z,2.45
2023-02-14T01:31:32.582Z,2.46
2023-02-14T01:31:39.851Z,2.47
2023-02-14T01:31:49.106Z,2.46
2023-02-14T01:31:57.748Z,2.46
2023-02-14T01:32:05.556Z,2.46
2023-02-14T01:32:12.722Z,2.45
2023-02-14T01:32:19.845Z,2.46
2023-02-14T01:32:33.939Z,2.47
2023-02-14T01:32:40.986Z,2.46
2023-02-14T01:32:50.581Z,2.46
2023-02-14T01:33:09.706Z,2.47
2023-02-14T01:33:16.812Z,2.47
2023-02-14T01:33:24.037Z,2.47
2023-02-14T01:33:31.141Z,2.47
2023-02-14T01:33:50.835Z,2.48
2023-02-14T01:33:58.583Z,2.48
2023-02-14T01:34:05.702Z,2.50
2023-02-14T01:34:13.858Z,2.50
2023-02-14T01:34:20.905Z,2.49
2023-02-14T01:34:40.032Z,2.47
2023-02-14T01:34:48.154Z,2.45
2023-02-14T01:34:55.263Z,2.48
2023-02-14T01:35:03.261Z,2.47
2023-02-14T01:35:10.817Z,2.46
2023-02-14T01:35:29.907Z,2.49
2023-02-14T01:35:38.788Z,2.49
2023-02-14T01:35:46.042Z,2.50
2023-02-14T01:35:54.385Z,2.47
2023-02-14T01:36:02.449Z,2.48
2023-02-14T01:36:15.142Z,2.48
2023-02-14T01:36:23.388Z,2.48
2023-02-14T01:36:31.634Z,2.47
2023-02-14T01:36:53.550Z,2.49
2023-02-14T01:37:00.602Z,2.46
2023-02-14T01:37:07.672Z,2.46
2023-02-14T01:37:15.616Z,2.46
2023-02-14T01:37:22.709Z,2.48
2023-02-14T01:37:30.946Z,2.45
2023-02-14T01:37:45.066Z,2.45
2023-02-14T01:37:56.920Z,2.44
2023-02-14T01:38:04.347Z,2.47
2023-02-14T01:38:11.366Z,2.45
2023-02-14T01:38:29.665Z,2.46
2023-02-14T01:38:39.464Z,2.46
2023-02-14T01:38:46.597Z,2.49
2023-02-14T01:38:55.233Z,2.48
2023-02-14T01:39:04.769Z,2.50
2023-02-14T01:39:13.704Z,2.49
2023-02-14T01:39:20.822Z,2.47
2023-02-14T01:39:35.118Z,2.44
2023-02-14T01:39:42.544Z,2.46
2023-02-14T01:39:50.666Z,2.45
2023-02-14T01:40:11.431Z,2.48
2023-02-14T01:40:18.592Z,2.46
2023-02-14T01:40:25.817Z,2.48
2023-02-14T01:40:33.115Z,2.48
2023-02-14T01:40:42.646Z,2.46
2023-02-14T01:41:01.863Z,2.40
2023-02-14T01:41:11.293Z,2.41
2023-02-14T01:41:19.409Z,2.42
2023-02-14T01:41:27.261Z,2.42
2023-02-14T01:41:35.856Z,2.44
2023-02-14T01:41:44.496Z,2.42
2023-02-14T01:41:53.988Z,2.42
2023-02-14T01:42:03.873Z,2.44
2023-02-14T01:42:14.069Z,2.45
2023-02-14T01:42:21.157Z,2.41
2023-02-14T01:42:37.510Z,2.42
2023-02-14T01:42:46.938Z,2.42
2023-02-14T01:42:54.043Z,2.44
2023-02-14T01:43:03.657Z,2.42
2023-02-14T01:43:13.585Z,2.43
2023-02-14T01:43:20.681Z,2.43
2023-02-14T01:43:50.453Z,2.46
2023-02-14T01:44:01.232Z,2.46
2023-02-14T01:44:28.611Z,2.48
2023-02-14T01:45:06.472Z,2.45
2023-02-14T01:45:17.559Z,2.46
2023-02-14T01:45:26.767Z,2.44
2023-02-14T01:45:34.073Z,2.45
2023-02-14T01:45:41.608Z,2.44
2023-02-14T01:45:48.790Z,2.46
2023-02-14T01:45:55.904Z,2.44
2023-02-14T01:46:03.117Z,2.44
2023-02-14T01:46:10.990Z,2.42
2023-02-14T01:46:19.553Z,2.44
2023-02-14T01:46:27.950Z,2.45
2023-02-14T01:46:36.208Z,2.45
2023-02-14T01:46:46.702Z,2.42
2023-02-14T01:46:54.036Z,2.44
2023-02-14T01:47:03.063Z,2.46
2023-02-14T01:47:11.048Z,2.48
2023-02-14T01:47:18.344Z,2.46
2023-02-14T01:47:26.902Z,2.45
2023-02-14T01:47:37.145Z,2.45
2023-02-14T01:47:45.813Z,2.47
2023-02-14T01:47:54.744Z,2.46
2023-02-14T01:48:01.860Z,2.47
2023-02-14T01:48:09.325Z,2.48
2023-02-14T01:48:17.324Z,2.49
2023-02-14T01:48:25.944Z,2.48
2023-02-14T01:48:33.221Z,2.47
2023-02-14T01:48:40.286Z,2.48
2023-02-14T01:48:47.590Z,2.48
2023-02-14T01:49:03.152Z,2.50
2023-02-14T01:49:15.698Z,2.50
2023-02-14T01:49:29.866Z,2.49
2023-02-14T01:49:38.736Z,2.48
2023-02-14T01:49:52.170Z,2.48
2023-02-14T01:50:01.623Z,2.48
2023-02-14T01:50:11.033Z,2.48
2023-02-14T01:50:22.620Z,2.48
2023-02-14T01:50:32.900Z,2.48
2023-02-14T01:50:41.578Z,2.48
2023-02-14T01:50:50.190Z,2.49
2023-02-14T01:50:57.628Z,2.50
2023-02-14T01:51:04.931Z,2.52
2023-02-14T01:51:12.618Z,2.49
2023-02-14T01:51:20.213Z,2.50
2023-02-14T01:51:28.562Z,2.47
2023-02-14T01:51:54.970Z,2.44
2023-02-14T01:52:05.464Z,2.46
2023-02-14T01:52:14.390Z,2.45
2023-02-14T01:52:26.963Z,2.44
2023-02-14T01:52:35.596Z,2.46
2023-02-14T01:52:44.156Z,2.44
2023-02-14T01:52:54.370Z,2.43
2023-02-14T01:53:02.793Z,2.41
2023-02-14T01:53:12.373Z,2.40
2023-02-14T01:53:21.777Z,2.40
2023-02-14T01:53:29.423Z,2.41
2023-02-14T01:53:37.409Z,2.41
2023-02-14T01:53:44.998Z,2.42
2023-02-14T01:53:52.552Z,2.42
2023-02-14T01:54:00.082Z,2.42
2023-02-14T01:54:08.945Z,2.42
2023-02-14T01:54:25.143Z,2.43
2023-02-14T01:54:33.420Z,2.44
2023-02-14T01:54:41.943Z,2.44
2023-02-14T01:54:53.385Z,2.44
2023-02-14T01:55:06.416Z,2.46
2023-02-14T01:55:15.749Z,2.45
2023-02-14T01:55:24.993Z,2.46
2023-02-14T01:55:33.197Z,2.44
2023-02-14T01:55:42.666Z,2.43
2023-02-14T01:55:54.193Z,2.44
2023-02-14T01:56:06.207Z,2.44
2023-02-14T01:56:14.718Z,2.44
2023-02-14T01:56:25.278Z,2.45
2023-02-14T01:56:35.376Z,2.45
2023-02-14T01:56:44.397Z,2.44
2023-02-14T01:56:54.756Z,2.45
2023-02-14T01:57:06.760Z,2.46
2023-02-14T01:57:15.222Z,2.45
2023-02-14T01:57:22.893Z,2.45
2023-02-14T01:57:33.849Z,2.45
2023-02-14T01:57:44.097Z,2.44
2023-02-14T01:57:53.061Z,2.45
2023-02-14T01:58:02.691Z,2.45
2023-02-14T01:58:11.894Z,2.45
2023-02-14T01:58:20.684Z,2.43
2023-02-14T01:58:30.313Z,2.42
2023-02-14T01:58:39.194Z,2.43
2023-02-14T01:58:48.315Z,2.42
2023-02-14T01:59:00.658Z,2.42
2023-02-14T01:59:11.840Z,2.39
2023-02-14T01:59:20.437Z,2.39
2023-02-14T01:59:30.274Z,2.40
2023-02-14T01:59:38.973Z,2.42
2023-02-14T01:59:49.003Z,2.40
2023-02-14T02:00:18.580Z,2.40
2023-02-14T02:00:45.738Z,2.40
2023-02-14T02:00:59.458Z,2.39
2023-02-14T02:01:07.033Z,2.38
2023-02-14T02:01:15.941Z,2.38
2023-02-14T02:01:24.037Z,2.37
2023-02-14T02:01:32.593Z,2.37
2023-02-14T02:01:41.896Z,2.39
2023-02-14T02:01:49.994Z,2.37
2023-02-14T02:01:57.839Z,2.40
2023-02-14T02:02:05.528Z,2.38
2023-02-14T02:02:12.842Z,2.39
2023-02-14T02:02:23.985Z,2.37
2023-02-14T02:02:31.211Z,2.37
2023-02-14T02:02:40.022Z,2.38
2023-02-14T02:02:47.381Z,2.40
2023-02-14T02:02:55.005Z,2.39
2023-02-14T02:03:03.798Z,2.37
2023-02-14T02:03:11.108Z,2.36
2023-02-14T02:03:20.611Z,2.36
2023-02-14T02:03:30.191Z,2.36
2023-02-14T02:03:39.527Z,2.34
2023-02-14T02:03:49.363Z,2.36
2023-02-14T02:03:57.692Z,2.35
2023-02-14T02:04:08.103Z,2.35
2023-02-14T02:04:16.357Z,2.35
2023-02-14T02:04:25.012Z,2.36
2023-02-14T02:04:35.827Z,2.37
2023-02-14T02:04:45.581Z,2.37
2023-02-14T02:04:56.087Z,2.38
2023-02-14T02:05:05.940Z,2.37
2023-02-14T02:05:13.891Z,2.36
2023-02-14T02:05:23.922Z,2.36
2023-02-14T02:05:31.097Z,2.35
2023-02-14T02:05:40.323Z,2.35
2023-02-14T02:05:48.604Z,2.37
2023-02-14T02:05:59.121Z,2.37
2023-02-14T02:06:09.969Z,2.37
2023-02-14T02:06:18.007Z,2.38
2023-02-14T02:06:29.671Z,2.38
2023-02-14T02:06:38.245Z,2.38
2023-02-14T02:06:49.166Z,2.39
2023-02-14T02:06:59.768Z,2.39
2023-02-14T02:07:11.833Z,2.38
2023-02-14T02:07:21.197Z,2.39
2023-02-14T02:07:29.800Z,2.38
2023-02-14T02:07:39.243Z,2.40
2023-02-14T02:07:59.776Z,2.40
2023-02-14T02:08:08.344Z,2.41
2023-02-14T02:08:16.044Z,2.39
2023-02-14T02:08:24.644Z,2.38
2023-02-14T02:08:33.478Z,2.39
2023-02-14T02:08:43.571Z,2.38
2023-02-14T02:08:56.085Z,2.38
2023-02-14T02:09:07.295Z,2.39
2023-02-14T02:09:18.546Z,2.38
2023-02-14T02:09:28.851Z,2.38
2023-02-14T02:09:37.764Z,2.40
2023-02-14T02:09:47.076Z,2.40
2023-02-14T02:09:55.522Z,2.40
2023-02-14T02:10:05.587Z,2.39
2023-02-14T02:10:12.724Z,2.40
2023-02-14T02:10:19.812Z,2.38
2023-02-14T02:10:29.690Z,2.40
2023-02-14T02:10:43.848Z,2.38
2023-02-14T02:10:51.996Z,2.38
2023-02-14T02:11:00.434Z,2.39
2023-02-14T02:11:07.603Z,2.40
2023-02-14T02:11:27.830Z,2.41
2023-02-14T02:11:35.233Z,2.43
2023-02-14T02:11:42.713Z,2.40
2023-02-14T02:11:49.971Z,2.40
2023-02-14T02:12:05.531Z,2.40
2023-02-14T02:12:12.767Z,2.41
2023-02-14T02:12:20.045Z,2.39
2023-02-14T02:12:39.826Z,2.38
2023-02-14T02:12:48.225Z,2.37
2023-02-14T02:12:56.554Z,2.37
2023-02-14T02:13:05.649Z,2.40
2023-02-14T02:13:15.169Z,2.36
2023-02-14T02:13:22.711Z,2.38
2023-02-14T02:13:33.319Z,2.36
2023-02-14T02:13:41.387Z,2.35
2023-02-14T02:13:48.527Z,2.35